Time,TemperatureF,DewpointF,PressureIn,WindDirection,WindDirectionDegrees,WindSpeedMPH,WindSpeedGustMPH,Humidity,HourlyPrecipIn,Conditions,Clouds,dailyrainin,SoftwareType,DateUTC
2013-05-30 00:01:00,60.8,60.3,28.40,North,0,0.0,2.0,98,0.00,,,1.39,meteohub,2013-05-30 04:01:00,
2013-05-30 00:02:00,60.8,60.3,28.40,North,0,0.0,2.0,98,0.00,,,1.39,meteohub,2013-05-30 04:02:00,
2013-05-30 00:03:00,60.8,60.3,28.40,North,0,0.0,2.0,98,0.00,,,1.39,meteohub,2013-05-30 04:03:00,
2013-05-30 00:05:00,60.8,60.3,28.40,North,0,1.0,2.0,98,0.00,,,0.00,meteohub,2013-05-30 04:05:00,
2013-05-30 00:06:00,60.8,60.3,28.40,SW,225,1.0,2.0,98,0.00,,,0.00,meteohub,2013-05-30 04:06:00,
2013-05-30 00:12:00,60.6,60.3,28.40,SW,225,0.0,2.0,99,0.00,,,0.00,meteohub,2013-05-30 04:12:00,
2013-05-30 00:17:00,60.4,60.1,28.40,SW,225,0.0,1.0,99,0.00,,,0.00,meteohub,2013-05-30 04:17:00,
2013-05-30 00:22:00,60.3,59.9,28.40,SW,225,0.0,1.0,99,0.00,,,0.00,meteohub,2013-05-30 04:22:00,
2013-05-30 00:27:00,60.3,59.9,28.40,SW,225,2.0,0.0,99,0.00,,,0.00,meteohub,2013-05-30 04:27:00,
2013-05-30 00:32:00,60.1,59.7,28.40,SE,135,0.0,2.0,99,0.00,,,0.00,meteohub,2013-05-30 04:32:00,
2013-05-30 00:37:00,60.1,59.7,28.40,South,180,0.0,2.0,99,0.00,,,0.00,meteohub,2013-05-30 04:37:00,
2013-05-30 00:42:00,60.1,59.7,28.40,SSW,203,1.0,2.0,99,0.00,,,0.00,meteohub,2013-05-30 04:42:00,
2013-05-30 00:47:00,60.1,59.7,28.40,South,180,2.0,2.0,99,0.00,,,0.00,meteohub,2013-05-30 04:47:00,
2013-05-30 00:52:00,59.9,59.5,28.40,South,180,2.0,2.0,99,0.00,,,0.00,meteohub,2013-05-30 04:52:00,
2013-05-30 00:57:00,59.9,59.5,28.40,North,0,2.0,2.0,99,0.00,,,0.00,meteohub,2013-05-30 04:57:00,
2013-05-30 01:02:00,59.9,59.5,28.40,South,180,1.0,2.0,99,0.00,,,0.00,meteohub,2013-05-30 05:02:00,
2013-05-30 01:07:00,59.7,59.4,28.40,SE,135,1.0,3.0,99,0.00,,,0.00,meteohub,2013-05-30 05:07:00,
2013-05-30 01:12:00,59.7,59.4,28.40,SE,135,4.0,4.0,99,0.00,,,0.00,meteohub,2013-05-30 05:12:00,
2013-05-30 01:17:00,59.7,59.4,28.40,East,90,3.0,4.0,99,0.00,,,0.00,meteohub,2013-05-30 05:17:00,
2013-05-30 01:22:00,59.7,59.4,28.40,NW,315,2.0,4.0,99,0.00,,,0.00,meteohub,2013-05-30 05:22:00,
2013-05-30 01:27:00,59.5,59.2,28.40,South,180,4.0,4.0,99,0.00,,,0.00,meteohub,2013-05-30 05:27:00,
2013-05-30 01:32:00,59.5,59.2,28.40,East,90,2.0,4.0,99,0.00,,,0.00,meteohub,2013-05-30 05:32:00,
2013-05-30 01:37:00,59.5,59.2,28.40,SW,225,3.0,4.0,99,0.00,,,0.00,meteohub,2013-05-30 05:37:00,
2013-05-30 01:42:00,59.4,59.0,28.41,South,180,1.0,4.0,99,0.00,,,0.00,meteohub,2013-05-30 05:42:00,
2013-05-30 01:48:00,59.4,59.0,28.40,South,180,2.0,4.0,99,0.00,,,0.00,meteohub,2013-05-30 05:48:00,
2013-05-30 01:53:00,59.2,58.8,28.40,SW,225,0.0,4.0,99,0.00,,,0.00,meteohub,2013-05-30 05:53:00,
2013-05-30 01:58:00,59.0,58.6,28.41,NE,45,2.0,4.0,99,0.00,,,0.00,meteohub,2013-05-30 05:58:00,
2013-05-30 02:03:00,59.0,58.6,28.41,South,180,2.0,2.0,99,0.00,,,0.00,meteohub,2013-05-30 06:03:00,
2013-05-30 02:08:00,58.8,58.5,28.41,NW,315,1.0,2.0,99,0.00,,,0.00,meteohub,2013-05-30 06:08:00,
2013-05-30 02:13:00,58.8,58.5,28.41,East,90,0.0,2.0,99,0.00,,,0.00,meteohub,2013-05-30 06:13:00,
2013-05-30 02:18:00,58.5,58.1,28.41,NE,45,1.0,2.0,99,0.00,,,0.00,meteohub,2013-05-30 06:18:00,
2013-05-30 02:23:00,58.5,58.1,28.41,SW,225,0.0,2.0,99,0.00,,,0.00,meteohub,2013-05-30 06:23:00,
2013-05-30 02:28:00,58.3,57.9,28.41,NW,315,2.0,2.0,99,0.00,,,0.00,meteohub,2013-05-30 06:28:00,
2013-05-30 02:33:00,58.3,57.9,28.41,SW,225,1.0,2.0,99,0.00,,,0.00,meteohub,2013-05-30 06:33:00,
2013-05-30 02:38:00,58.1,57.7,28.41,NE,45,2.0,2.0,99,0.00,,,0.00,meteohub,2013-05-30 06:38:00,
2013-05-30 02:43:00,58.1,57.7,28.41,East,90,2.0,2.0,99,0.00,,,0.00,meteohub,2013-05-30 06:43:00,
2013-05-30 02:48:00,57.9,57.6,28.41,NE,45,3.0,3.0,99,0.00,,,0.00,meteohub,2013-05-30 06:48:00,
2013-05-30 02:53:00,57.9,57.6,28.41,SW,225,2.0,3.0,99,0.00,,,0.00,meteohub,2013-05-30 06:53:00,
2013-05-30 02:59:00,57.9,57.6,28.41,East,90,1.0,3.0,99,0.00,,,0.00,meteohub,2013-05-30 06:59:00,
2013-05-30 03:04:00,57.7,57.4,28.42,North,0,0.0,3.0,99,0.00,,,0.00,meteohub,2013-05-30 07:04:00,
2013-05-30 03:09:00,57.7,57.4,28.41,SW,225,2.0,2.0,99,0.00,,,0.00,meteohub,2013-05-30 07:09:00,
2013-05-30 03:14:00,57.6,57.2,28.42,SE,135,0.0,2.0,99,0.00,,,0.00,meteohub,2013-05-30 07:14:00,
2013-05-30 03:19:00,57.6,57.2,28.41,South,180,1.0,2.0,99,0.00,,,0.00,meteohub,2013-05-30 07:19:00,
2013-05-30 03:24:00,57.4,57.0,28.41,North,0,2.0,2.0,99,0.00,,,0.00,meteohub,2013-05-30 07:24:00,
2013-05-30 03:29:00,57.4,57.0,28.41,NW,315,1.0,2.0,99,0.00,,,0.00,meteohub,2013-05-30 07:29:00,
2013-05-30 03:34:00,57.2,56.8,28.41,NW,315,0.0,2.0,99,0.00,,,0.00,meteohub,2013-05-30 07:34:00,
2013-05-30 03:39:00,57.0,56.7,28.41,South,180,0.0,2.0,99,0.00,,,0.00,meteohub,2013-05-30 07:39:00,
2013-05-30 03:44:00,56.8,56.5,28.41,NE,45,0.0,2.0,99,0.00,,,0.00,meteohub,2013-05-30 07:44:00,
2013-05-30 03:49:00,56.8,56.5,28.41,West,270,0.0,2.0,99,0.00,,,0.00,meteohub,2013-05-30 07:49:00,
2013-05-30 03:54:00,56.7,56.3,28.41,West,270,0.0,2.0,99,0.00,,,0.00,meteohub,2013-05-30 07:54:00,
2013-05-30 03:59:00,56.7,56.3,28.41,SE,135,0.0,2.0,99,0.00,,,0.00,meteohub,2013-05-30 07:59:00,
2013-05-30 04:04:00,56.5,56.1,28.41,East,90,2.0,2.0,99,0.00,,,0.00,meteohub,2013-05-30 08:04:00,
2013-05-30 04:10:00,56.5,56.1,28.41,South,180,0.0,2.0,99,0.00,,,0.00,meteohub,2013-05-30 08:10:00,
2013-05-30 04:15:00,56.3,55.9,28.40,NE,45,0.0,2.0,99,0.00,,,0.00,meteohub,2013-05-30 08:15:00,
2013-05-30 04:20:00,56.3,55.9,28.40,West,270,0.0,2.0,99,0.00,,,0.00,meteohub,2013-05-30 08:20:00,
2013-05-30 04:25:00,56.1,55.8,28.40,West,270,0.0,2.0,99,0.00,,,0.00,meteohub,2013-05-30 08:25:00,
2013-05-30 04:30:00,55.9,55.6,28.40,West,270,0.0,0.0,99,0.00,,,0.00,meteohub,2013-05-30 08:30:00,
2013-05-30 04:35:00,55.8,55.4,28.40,ESE,113,0.0,0.0,99,0.00,,,0.00,meteohub,2013-05-30 08:35:00,
2013-05-30 04:40:00,55.6,55.2,28.40,NW,315,0.0,0.0,99,0.00,,,0.00,meteohub,2013-05-30 08:40:00,
2013-05-30 04:45:00,55.6,55.2,28.41,NW,315,0.0,0.0,99,0.00,,,0.00,meteohub,2013-05-30 08:45:00,
2013-05-30 04:50:00,55.6,55.2,28.40,NW,315,0.0,0.0,99,0.00,,,0.00,meteohub,2013-05-30 08:50:00,
2013-05-30 04:55:00,55.6,55.2,28.40,SW,225,0.0,0.0,99,0.00,,,0.00,meteohub,2013-05-30 08:55:00,
2013-05-30 05:00:00,55.4,55.0,28.41,SW,225,0.0,2.0,99,0.00,,,0.00,meteohub,2013-05-30 09:00:00,
2013-05-30 05:05:00,55.4,55.0,28.41,SW,225,0.0,2.0,99,0.00,,,0.00,meteohub,2013-05-30 09:05:00,
2013-05-30 05:10:00,55.4,55.0,28.42,SW,225,0.0,2.0,99,0.00,,,0.00,meteohub,2013-05-30 09:10:00,
2013-05-30 05:15:00,55.2,54.3,28.42,SE,135,0.0,0.0,97,0.00,,,0.00,meteohub,2013-05-30 09:15:00,
2013-05-30 05:21:00,55.4,55.0,28.42,SE,135,0.0,0.0,99,0.00,,,0.00,meteohub,2013-05-30 09:21:00,
2013-05-30 05:26:00,55.2,54.3,28.42,SE,135,0.0,0.0,97,0.00,,,0.00,meteohub,2013-05-30 09:26:00,
2013-05-30 05:31:00,55.2,54.3,28.42,SE,135,0.0,0.0,97,0.00,,,0.00,meteohub,2013-05-30 09:31:00,
2013-05-30 05:36:00,55.2,54.3,28.43,West,270,0.0,0.0,97,0.00,,,0.00,meteohub,2013-05-30 09:36:00,
2013-05-30 05:41:00,55.2,54.3,28.43,West,270,0.0,0.0,97,0.00,,,0.00,meteohub,2013-05-30 09:41:00,
2013-05-30 05:46:00,55.2,54.3,28.43,West,270,0.0,0.0,97,0.00,,,0.00,meteohub,2013-05-30 09:46:00,
2013-05-30 05:51:00,55.2,54.3,28.43,East,90,0.0,0.0,97,0.00,,,0.00,meteohub,2013-05-30 09:51:00,
2013-05-30 05:56:00,55.2,54.3,28.44,East,90,0.0,1.0,97,0.00,,,0.00,meteohub,2013-05-30 09:56:00,
2013-05-30 06:01:00,55.2,54.3,28.43,East,90,0.0,1.0,97,0.00,,,0.00,meteohub,2013-05-30 10:01:00,
2013-05-30 06:06:00,55.2,54.3,28.43,East,90,0.0,0.0,97,0.00,,,0.00,meteohub,2013-05-30 10:06:00,
2013-05-30 06:11:00,55.2,54.3,28.43,SW,225,0.0,0.0,97,0.00,,,0.00,meteohub,2013-05-30 10:11:00,
2013-05-30 06:16:00,55.4,55.0,28.43,East,90,0.0,0.0,99,0.00,,,0.00,meteohub,2013-05-30 10:16:00,
2013-05-30 06:21:00,55.6,55.2,28.44,East,90,0.0,2.0,99,0.00,,,0.00,meteohub,2013-05-30 10:21:00,
2013-05-30 06:26:00,55.6,55.2,28.44,East,90,0.0,2.0,99,0.00,,,0.00,meteohub,2013-05-30 10:26:00,
2013-05-30 06:32:00,55.9,55.6,28.44,East,90,0.0,2.0,99,0.00,,,0.00,meteohub,2013-05-30 10:32:00,
2013-05-30 06:37:00,56.3,55.9,28.44,NW,315,1.0,2.0,99,0.00,,,0.00,meteohub,2013-05-30 10:37:00,
2013-05-30 06:42:00,56.7,56.3,28.44,NE,45,0.0,2.0,99,0.00,,,0.00,meteohub,2013-05-30 10:42:00,
2013-05-30 06:47:00,57.2,56.8,28.45,NE,45,1.0,2.0,99,0.00,,,0.00,meteohub,2013-05-30 10:47:00,
2013-05-30 06:52:00,57.6,57.2,28.45,NE,45,0.0,2.0,99,0.00,,,0.00,meteohub,2013-05-30 10:52:00,
2013-05-30 06:57:00,57.9,57.6,28.45,West,270,1.0,2.0,99,0.00,,,0.00,meteohub,2013-05-30 10:57:00,
2013-05-30 07:02:00,58.1,57.7,28.45,West,270,0.0,2.0,99,0.00,,,0.00,meteohub,2013-05-30 11:02:00,
2013-05-30 07:07:00,58.6,58.3,28.45,East,90,1.0,2.0,99,0.00,,,0.00,meteohub,2013-05-30 11:07:00,
2013-05-30 07:12:00,59.4,59.0,28.45,NE,45,2.0,2.0,99,0.00,,,0.00,meteohub,2013-05-30 11:12:00,
2013-05-30 07:17:00,59.4,59.0,28.45,NNW,338,2.0,2.0,99,0.00,,,0.00,meteohub,2013-05-30 11:17:00,
2013-05-30 07:22:00,59.7,59.4,28.45,North,0,1.0,2.0,99,0.00,,,0.00,meteohub,2013-05-30 11:22:00,
2013-05-30 07:27:00,60.4,60.1,28.45,North,0,1.0,2.0,99,0.00,,,0.00,meteohub,2013-05-30 11:27:00,
2013-05-30 07:32:00,60.8,60.3,28.45,NE,45,2.0,2.0,98,0.00,,,0.00,meteohub,2013-05-30 11:32:00,
2013-05-30 07:37:00,60.8,60.3,28.45,NE,45,2.0,2.0,98,0.00,,,0.00,meteohub,2013-05-30 11:37:00,
2013-05-30 07:42:00,62.2,61.7,28.45,NE,45,1.0,2.0,98,0.00,,,0.00,meteohub,2013-05-30 11:42:00,
2013-05-30 07:47:00,63.0,62.1,28.45,NE,45,2.0,2.0,97,0.00,,,0.00,meteohub,2013-05-30 11:47:00,
2013-05-30 07:52:00,63.3,62.4,28.45,NE,45,2.0,2.0,97,0.00,,,0.00,meteohub,2013-05-30 11:52:00,
2013-05-30 07:57:00,63.9,63.0,28.45,NE,45,2.0,2.0,97,0.00,,,0.00,meteohub,2013-05-30 11:57:00,
2013-05-30 08:02:00,64.4,64.0,28.45,North,0,1.0,2.0,99,0.00,,,0.00,meteohub,2013-05-30 12:02:00,
2013-05-30 08:07:00,65.3,64.9,28.45,East,90,2.0,2.0,99,0.00,,,0.00,meteohub,2013-05-30 12:07:00,
2013-05-30 08:12:00,66.2,65.8,28.45,SW,225,1.0,2.0,99,0.00,,,0.00,meteohub,2013-05-30 12:12:00,
2013-05-30 08:17:00,67.3,66.9,28.45,East,90,0.0,2.0,99,0.00,,,0.00,meteohub,2013-05-30 12:17:00,
2013-05-30 08:22:00,68.4,68.0,28.45,SE,135,0.0,2.0,99,0.00,,,0.00,meteohub,2013-05-30 12:22:00,
2013-05-30 08:27:00,69.1,68.7,28.45,NE,45,2.0,2.0,99,0.00,,,0.00,meteohub,2013-05-30 12:27:00,
2013-05-30 08:32:00,69.8,69.3,28.45,North,0,1.0,2.0,98,0.00,,,0.00,meteohub,2013-05-30 12:32:00,
2013-05-30 08:37:00,70.5,70.0,28.45,North,0,0.0,2.0,98,0.00,,,0.00,meteohub,2013-05-30 12:37:00,
2013-05-30 08:42:00,71.4,70.9,28.46,East,90,0.0,2.0,98,0.00,,,0.00,meteohub,2013-05-30 12:42:00,
2013-05-30 08:47:00,72.0,71.1,28.45,NE,45,3.0,3.0,97,0.00,,,0.00,meteohub,2013-05-30 12:47:00,
2013-05-30 08:52:00,72.3,71.1,28.45,NE,45,2.0,4.0,96,0.00,,,0.00,meteohub,2013-05-30 12:52:00,
2013-05-30 08:57:00,72.7,70.9,28.46,NE,45,2.0,4.0,94,0.00,,,0.00,meteohub,2013-05-30 12:57:00,
2013-05-30 09:02:00,73.0,70.3,28.45,West,270,1.0,4.0,91,0.00,,,0.00,meteohub,2013-05-30 13:02:00,
2013-05-30 09:07:00,73.8,69.3,28.45,SW,225,3.0,4.0,86,0.00,,,0.00,meteohub,2013-05-30 13:07:00,
2013-05-30 09:12:00,74.3,68.7,28.45,North,0,2.0,5.0,83,0.00,,,0.00,meteohub,2013-05-30 13:12:00,
2013-05-30 09:17:00,75.0,69.1,28.45,East,90,4.0,5.0,82,0.00,,,0.00,meteohub,2013-05-30 13:17:00,
2013-05-30 09:22:00,75.4,68.0,28.45,NW,315,4.0,6.0,78,0.00,,,0.00,meteohub,2013-05-30 13:22:00,
2013-05-30 09:27:00,75.7,67.3,28.45,North,0,4.0,6.0,75,0.00,,,0.00,meteohub,2013-05-30 13:27:00,
2013-05-30 09:32:00,76.5,69.1,28.45,NE,45,5.0,6.0,78,0.00,,,0.00,meteohub,2013-05-30 13:32:00,
2013-05-30 09:37:00,76.8,68.4,28.45,East,90,3.0,6.0,75,0.00,,,0.00,meteohub,2013-05-30 13:37:00,
2013-05-30 09:43:00,77.2,67.1,28.45,NW,315,2.0,6.0,71,0.00,,,0.00,meteohub,2013-05-30 13:43:00,
2013-05-30 09:48:00,77.5,67.5,28.45,North,0,5.0,6.0,71,0.00,,,0.00,meteohub,2013-05-30 13:48:00,
2013-05-30 09:53:00,77.7,67.1,28.45,ENE,68,2.0,6.0,70,0.00,,,0.00,meteohub,2013-05-30 13:53:00,
2013-05-30 09:58:00,78.3,67.6,28.45,North,0,4.0,6.0,70,0.00,,,0.00,meteohub,2013-05-30 13:58:00,
2013-05-30 10:03:00,78.3,66.7,28.45,NE,45,3.0,6.0,68,0.00,,,0.00,meteohub,2013-05-30 14:03:00,
2013-05-30 10:08:00,78.6,65.5,28.45,NW,315,5.0,6.0,64,0.00,,,0.00,meteohub,2013-05-30 14:08:00,
2013-05-30 10:13:00,78.6,64.9,28.45,NNW,338,7.0,9.0,63,0.00,,,0.00,meteohub,2013-05-30 14:13:00,
2013-05-30 10:18:00,78.4,64.4,28.45,NW,315,3.0,9.0,62,0.00,,,0.00,meteohub,2013-05-30 14:18:00,
2013-05-30 10:23:00,78.6,64.0,28.45,SW,225,5.0,9.0,61,0.00,,,0.00,meteohub,2013-05-30 14:23:00,
2013-05-30 10:28:00,79.0,64.4,28.45,NW,315,5.0,9.0,61,0.00,,,0.00,meteohub,2013-05-30 14:28:00,
2013-05-30 10:33:00,79.2,64.6,28.45,NW,315,3.0,10.0,61,0.00,,,0.00,meteohub,2013-05-30 14:33:00,
2013-05-30 10:38:00,79.3,64.2,28.45,NNW,338,6.0,10.0,60,0.00,,,0.00,meteohub,2013-05-30 14:38:00,
2013-05-30 10:43:00,79.5,64.4,28.45,West,270,4.0,10.0,60,0.00,,,0.00,meteohub,2013-05-30 14:43:00,
2013-05-30 10:48:00,79.5,63.9,28.45,NNW,338,7.0,8.0,59,0.00,,,0.00,meteohub,2013-05-30 14:48:00,
2013-05-30 10:54:00,79.5,63.5,28.45,West,270,3.0,8.0,58,0.00,,,0.00,meteohub,2013-05-30 14:54:00,
2013-05-30 10:59:00,79.7,62.6,28.45,NW,315,8.0,11.0,56,0.00,,,0.00,meteohub,2013-05-30 14:59:00,
2013-05-30 11:04:00,79.7,63.1,28.45,West,270,4.0,12.0,57,0.00,,,0.00,meteohub,2013-05-30 15:04:00,
2013-05-30 11:09:00,79.9,62.8,28.45,SW,225,5.0,13.0,56,0.00,,,0.00,meteohub,2013-05-30 15:09:00,
2013-05-30 11:14:00,80.2,63.1,28.46,North,0,8.0,13.0,56,0.00,,,0.00,meteohub,2013-05-30 15:14:00,
2013-05-30 11:19:00,80.6,63.0,28.46,North,0,12.0,13.0,55,0.00,,,0.00,meteohub,2013-05-30 15:19:00,
2013-05-30 11:24:00,81.0,63.3,28.46,North,0,12.0,12.0,55,0.00,,,0.00,meteohub,2013-05-30 15:24:00,
2013-05-30 11:29:00,80.6,61.9,28.46,NW,315,8.0,12.0,53,0.00,,,0.00,meteohub,2013-05-30 15:29:00,
2013-05-30 11:34:00,81.1,63.0,28.46,North,0,9.0,12.0,54,0.00,,,0.00,meteohub,2013-05-30 15:34:00,
2013-05-30 11:39:00,81.3,62.6,28.46,North,0,5.0,12.0,53,0.00,,,0.00,meteohub,2013-05-30 15:39:00,
2013-05-30 11:44:00,81.1,62.4,28.45,North,0,8.0,13.0,53,0.00,,,0.00,meteohub,2013-05-30 15:44:00,
2013-05-30 11:49:00,81.5,62.8,28.46,North,0,4.0,13.0,53,0.00,,,0.00,meteohub,2013-05-30 15:49:00,
2013-05-30 11:54:00,81.7,61.9,28.46,NW,315,8.0,13.0,51,0.00,,,0.00,meteohub,2013-05-30 15:54:00,
2013-05-30 12:00:00,81.9,62.4,28.46,NW,315,8.0,12.0,52,0.00,,,0.00,meteohub,2013-05-30 16:00:00,
2013-05-30 12:05:00,82.6,62.6,28.45,North,0,13.0,15.0,51,0.00,,,0.00,meteohub,2013-05-30 16:05:00,
2013-05-30 12:10:00,82.0,61.5,28.46,NW,315,5.0,15.0,50,0.00,,,0.00,meteohub,2013-05-30 16:10:00,
2013-05-30 12:15:00,82.4,62.4,28.45,NW,315,6.0,15.0,51,0.00,,,0.00,meteohub,2013-05-30 16:15:00,
2013-05-30 12:20:00,83.3,63.9,28.46,North,0,2.0,14.0,52,0.00,,,0.00,meteohub,2013-05-30 16:20:00,
2013-05-30 12:25:00,84.0,62.2,28.46,North,0,8.0,14.0,48,0.00,,,0.00,meteohub,2013-05-30 16:25:00,
2013-05-30 12:30:00,84.2,62.4,28.46,NE,45,4.0,11.0,48,0.00,,,0.00,meteohub,2013-05-30 16:30:00,
2013-05-30 12:35:00,83.3,61.5,28.46,NE,45,6.0,8.0,48,0.00,,,0.00,meteohub,2013-05-30 16:35:00,
2013-05-30 12:40:00,83.1,62.6,28.46,North,0,8.0,11.0,50,0.00,,,0.00,meteohub,2013-05-30 16:40:00,
2013-05-30 12:45:00,83.5,63.5,28.45,North,0,7.0,11.0,51,0.00,,,0.00,meteohub,2013-05-30 16:45:00,
2013-05-30 12:50:00,83.8,62.6,28.45,West,270,4.0,8.0,49,0.00,,,0.00,meteohub,2013-05-30 16:50:00,
2013-05-30 12:55:00,83.5,61.2,28.45,SW,225,4.0,9.0,47,0.00,,,0.00,meteohub,2013-05-30 16:55:00,
2013-05-30 13:00:00,83.8,63.1,28.45,NW,315,5.0,9.0,50,0.00,,,0.00,meteohub,2013-05-30 17:00:00,
2013-05-30 13:06:00,83.7,61.3,28.45,North,0,4.0,9.0,47,0.00,,,0.00,meteohub,2013-05-30 17:06:00,
2013-05-30 13:11:00,83.8,63.1,28.45,NW,315,4.0,8.0,50,0.00,,,0.00,meteohub,2013-05-30 17:11:00,
2013-05-30 13:16:00,83.8,61.5,28.46,NW,315,4.0,8.0,47,0.00,,,0.00,meteohub,2013-05-30 17:16:00,
2013-05-30 13:21:00,84.0,61.0,28.45,SW,225,3.0,9.0,46,0.00,,,0.00,meteohub,2013-05-30 17:21:00,
2013-05-30 13:26:00,83.7,61.3,28.44,North,0,7.0,9.0,47,0.00,,,0.00,meteohub,2013-05-30 17:26:00,
2013-05-30 13:31:00,82.8,59.9,28.44,NE,45,4.0,9.0,46,0.00,,,0.00,meteohub,2013-05-30 17:31:00,
2013-05-30 13:36:00,82.8,62.2,28.44,North,0,8.0,9.0,50,0.00,,,0.00,meteohub,2013-05-30 17:36:00,
2013-05-30 13:41:00,82.0,61.5,28.45,West,270,6.0,8.0,50,0.00,,,0.00,meteohub,2013-05-30 17:41:00,
2013-05-30 13:46:00,82.0,61.0,28.45,North,0,8.0,8.0,49,0.00,,,0.00,meteohub,2013-05-30 17:46:00,
2013-05-30 13:51:00,82.0,61.5,28.45,WNW,293,4.0,8.0,50,0.00,,,0.00,meteohub,2013-05-30 17:51:00,
2013-05-30 13:56:00,83.1,61.3,28.44,West,270,9.0,11.0,48,0.00,,,0.00,meteohub,2013-05-30 17:56:00,
2013-05-30 14:01:00,82.4,61.9,28.44,NW,315,4.0,11.0,50,0.00,,,0.00,meteohub,2013-05-30 18:01:00,
2013-05-30 14:06:00,82.2,61.2,28.44,North,0,2.0,11.0,49,0.00,,,0.00,meteohub,2013-05-30 18:06:00,
2013-05-30 14:11:00,82.0,61.0,28.45,North,0,6.0,11.0,49,0.00,,,0.00,meteohub,2013-05-30 18:11:00,
2013-05-30 14:16:00,82.2,61.7,28.44,North,0,5.0,9.0,50,0.00,,,0.00,meteohub,2013-05-30 18:16:00,
2013-05-30 14:22:00,83.5,60.4,28.44,NW,315,7.0,9.0,46,0.00,,,0.00,meteohub,2013-05-30 18:22:00,
2013-05-30 14:27:00,83.5,59.4,28.44,NE,45,8.0,10.0,44,0.00,,,0.00,meteohub,2013-05-30 18:27:00,
2013-05-30 14:32:00,83.3,60.4,28.44,North,0,5.0,10.0,46,0.00,,,0.00,meteohub,2013-05-30 18:32:00,
2013-05-30 14:37:00,83.7,60.6,28.44,ENE,68,4.0,10.0,46,0.00,,,0.00,meteohub,2013-05-30 18:37:00,
2013-05-30 14:42:00,82.9,60.1,28.43,North,0,8.0,8.0,46,0.00,,,0.00,meteohub,2013-05-30 18:42:00,
2013-05-30 14:47:00,82.2,59.9,28.44,North,0,6.0,8.0,47,0.00,,,0.00,meteohub,2013-05-30 18:47:00,
2013-05-30 14:52:00,82.8,59.9,28.43,North,0,3.0,8.0,46,0.00,,,0.00,meteohub,2013-05-30 18:52:00,
2013-05-30 14:57:00,83.5,60.4,28.43,NW,315,3.0,8.0,46,0.00,,,0.00,meteohub,2013-05-30 18:57:00,
2013-05-30 15:02:00,84.0,60.4,28.43,North,0,5.0,7.0,45,0.00,,,0.00,meteohub,2013-05-30 19:02:00,
2013-05-30 15:07:00,84.2,59.4,28.43,North,0,5.0,7.0,43,0.00,,,0.00,meteohub,2013-05-30 19:07:00,
2013-05-30 15:12:00,83.8,59.0,28.43,NE,45,8.0,8.0,43,0.00,,,0.00,meteohub,2013-05-30 19:12:00,
2013-05-30 15:17:00,84.9,59.9,28.43,NE,45,9.0,9.0,43,0.00,,,0.00,meteohub,2013-05-30 19:17:00,
2013-05-30 15:22:00,85.1,59.4,28.42,West,270,4.0,9.0,42,0.00,,,0.00,meteohub,2013-05-30 19:22:00,
2013-05-30 15:28:00,85.1,58.8,28.42,North,0,3.0,10.0,41,0.00,,,0.00,meteohub,2013-05-30 19:28:00,
2013-05-30 15:33:00,85.1,58.8,28.42,NW,315,3.0,13.0,41,0.00,,,0.00,meteohub,2013-05-30 19:33:00,
2013-05-30 15:38:00,86.0,58.8,28.43,North,0,5.0,13.0,40,0.00,,,0.00,meteohub,2013-05-30 19:38:00,
2013-05-30 15:43:00,85.1,58.8,28.42,North,0,5.0,13.0,41,0.00,,,0.00,meteohub,2013-05-30 19:43:00,
2013-05-30 15:48:00,85.1,58.8,28.42,NE,45,5.0,11.0,41,0.00,,,0.00,meteohub,2013-05-30 19:48:00,
2013-05-30 15:53:00,85.1,58.8,28.42,NNW,338,3.0,9.0,41,0.00,,,0.00,meteohub,2013-05-30 19:53:00,
2013-05-30 15:58:00,85.5,59.0,28.42,North,0,4.0,9.0,41,0.00,,,0.00,meteohub,2013-05-30 19:58:00,
2013-05-30 16:03:00,84.7,58.5,28.42,NE,45,4.0,12.0,41,0.00,,,0.00,meteohub,2013-05-30 20:03:00,
2013-05-30 16:08:00,84.6,59.0,28.41,North,0,6.0,12.0,42,0.00,,,0.00,meteohub,2013-05-30 20:08:00,
2013-05-30 16:13:00,85.1,58.8,28.42,NW,315,7.0,12.0,41,0.00,,,0.00,meteohub,2013-05-30 20:13:00,
2013-05-30 16:18:00,85.8,60.1,28.42,NE,45,8.0,12.0,42,0.00,,,0.00,meteohub,2013-05-30 20:18:00,
2013-05-30 16:23:00,85.6,59.9,28.42,North,0,4.0,12.0,42,0.00,,,0.00,meteohub,2013-05-30 20:23:00,
2013-05-30 16:28:00,84.6,59.0,28.41,NE,45,4.0,12.0,42,0.00,,,0.00,meteohub,2013-05-30 20:28:00,
2013-05-30 16:34:00,84.6,59.0,28.42,NE,45,3.0,10.0,42,0.00,,,0.00,meteohub,2013-05-30 20:34:00,
2013-05-30 16:39:00,83.7,59.4,28.42,North,0,4.0,10.0,44,0.00,,,0.00,meteohub,2013-05-30 20:39:00,
2013-05-30 16:44:00,83.8,60.3,28.42,North,0,4.0,8.0,45,0.00,,,0.00,meteohub,2013-05-30 20:44:00,
2013-05-30 16:49:00,84.6,60.3,28.41,NE,45,4.0,8.0,44,0.00,,,0.00,meteohub,2013-05-30 20:49:00,
2013-05-30 16:54:00,85.5,61.0,28.41,NE,45,5.0,8.0,44,0.00,,,0.00,meteohub,2013-05-30 20:54:00,
2013-05-30 16:59:00,85.6,60.6,28.41,North,0,6.0,8.0,43,0.00,,,0.00,meteohub,2013-05-30 20:59:00,
2013-05-30 17:04:00,85.1,60.1,28.42,North,0,3.0,8.0,43,0.00,,,0.00,meteohub,2013-05-30 21:04:00,
2013-05-30 17:09:00,83.8,59.5,28.42,NW,315,2.0,9.0,44,0.00,,,0.00,meteohub,2013-05-30 21:09:00,
2013-05-30 17:14:00,83.3,60.4,28.42,NE,45,10.0,10.0,46,0.00,,,0.00,meteohub,2013-05-30 21:14:00,
2013-05-30 17:19:00,83.3,61.0,28.42,NE,45,2.0,10.0,47,0.00,,,0.00,meteohub,2013-05-30 21:19:00,
2013-05-30 17:24:00,83.7,61.9,28.41,West,270,2.0,10.0,48,0.00,,,0.00,meteohub,2013-05-30 21:24:00,
2013-05-30 17:29:00,82.8,61.7,28.42,NW,315,0.0,10.0,49,0.00,,,0.00,meteohub,2013-05-30 21:29:00,
2013-05-30 17:34:00,82.9,61.9,28.42,North,0,4.0,4.0,49,0.00,,,0.00,meteohub,2013-05-30 21:34:00,
2013-05-30 17:40:00,83.8,62.6,28.41,NE,45,3.0,4.0,49,0.00,,,0.00,meteohub,2013-05-30 21:40:00,
2013-05-30 17:45:00,83.7,61.3,28.41,NW,315,4.0,4.0,47,0.00,,,0.00,meteohub,2013-05-30 21:45:00,
2013-05-30 17:50:00,83.5,61.2,28.41,West,270,3.0,8.0,47,0.00,,,0.00,meteohub,2013-05-30 21:50:00,
2013-05-30 17:55:00,83.7,61.9,28.41,North,0,4.0,8.0,48,0.00,,,0.00,meteohub,2013-05-30 21:55:00,
2013-05-30 18:00:00,83.8,62.1,28.41,NW,315,3.0,8.0,48,0.00,,,0.00,meteohub,2013-05-30 22:00:00,
2013-05-30 18:05:00,83.8,62.6,28.41,West,270,3.0,8.0,49,0.00,,,0.00,meteohub,2013-05-30 22:05:00,
2013-05-30 18:10:00,83.1,62.6,28.41,North,0,5.0,6.0,50,0.00,,,0.00,meteohub,2013-05-30 22:10:00,
2013-05-30 18:15:00,82.4,61.9,28.41,NW,315,3.0,6.0,50,0.00,,,0.00,meteohub,2013-05-30 22:15:00,
2013-05-30 18:20:00,82.0,62.1,28.41,NW,315,3.0,5.0,51,0.00,,,0.00,meteohub,2013-05-30 22:20:00,
2013-05-30 18:25:00,81.5,62.2,28.41,NE,45,2.0,5.0,52,0.00,,,0.00,meteohub,2013-05-30 22:25:00,
2013-05-30 18:30:00,81.5,62.8,28.41,NW,315,0.0,3.0,53,0.00,,,0.00,meteohub,2013-05-30 22:30:00,
2013-05-30 18:35:00,81.3,63.1,28.42,ESE,113,3.0,3.0,54,0.00,,,0.00,meteohub,2013-05-30 22:35:00,
2013-05-30 18:40:00,81.5,63.3,28.42,NE,45,3.0,4.0,54,0.00,,,0.00,meteohub,2013-05-30 22:40:00,
2013-05-30 18:46:00,81.9,62.4,28.42,North,0,4.0,4.0,52,0.00,,,0.00,meteohub,2013-05-30 22:46:00,
2013-05-30 18:51:00,81.5,63.3,28.42,South,180,2.0,4.0,54,0.00,,,0.00,meteohub,2013-05-30 22:51:00,
2013-05-30 18:56:00,81.0,64.2,28.42,SW,225,2.0,4.0,57,0.00,,,0.00,meteohub,2013-05-30 22:56:00,
2013-05-30 19:01:00,80.1,64.9,28.42,SW,225,1.0,4.0,60,0.00,,,0.00,meteohub,2013-05-30 23:01:00,
2013-05-30 19:06:00,79.7,65.5,28.42,SW,225,0.0,2.0,62,0.00,,,0.00,meteohub,2013-05-30 23:06:00,
2013-05-30 19:11:00,79.5,65.3,28.42,West,270,0.0,2.0,62,0.00,,,0.00,meteohub,2013-05-30 23:11:00,
2013-05-30 19:16:00,79.2,64.9,28.42,SW,225,1.0,2.0,62,0.00,,,0.00,meteohub,2013-05-30 23:16:00,
2013-05-30 19:21:00,78.6,65.5,28.42,SW,225,0.0,2.0,64,0.00,,,0.00,meteohub,2013-05-30 23:21:00,
2013-05-30 19:26:00,78.3,65.1,28.43,SW,225,2.0,2.0,64,0.00,,,0.00,meteohub,2013-05-30 23:26:00,
2013-05-30 19:31:00,77.9,66.0,28.43,SW,225,2.0,2.0,67,0.00,,,0.00,meteohub,2013-05-30 23:31:00,
2013-05-30 19:36:00,77.2,65.8,28.42,SW,225,0.0,2.0,68,0.00,,,0.00,meteohub,2013-05-30 23:36:00,
2013-05-30 19:42:00,76.6,65.7,28.43,SW,225,0.0,2.0,69,0.00,,,0.00,meteohub,2013-05-30 23:42:00,
2013-05-30 19:47:00,75.9,65.8,28.43,SW,225,1.0,2.0,71,0.00,,,0.00,meteohub,2013-05-30 23:47:00,
2013-05-30 19:52:00,75.4,65.3,28.43,SW,225,0.0,2.0,71,0.00,,,0.00,meteohub,2013-05-30 23:52:00,
2013-05-30 19:57:00,75.0,65.3,28.43,SW,225,0.0,2.0,72,0.00,,,0.00,meteohub,2013-05-30 23:57:00,
2013-05-30 20:02:00,74.5,65.3,28.43,SW,225,1.0,1.0,73,0.00,,,0.00,meteohub,2013-05-31 00:02:00,
2013-05-30 20:07:00,73.9,64.8,28.43,South,180,0.0,1.0,73,0.00,,,0.00,meteohub,2013-05-31 00:07:00,
2013-05-30 20:12:00,73.4,64.2,28.43,South,180,2.0,2.0,73,0.00,,,0.00,meteohub,2013-05-31 00:12:00,
2013-05-30 20:17:00,73.0,63.9,28.43,South,180,0.0,2.0,73,0.00,,,0.00,meteohub,2013-05-31 00:17:00,
2013-05-30 20:22:00,73.0,63.9,28.44,SE,135,2.0,2.0,73,0.00,,,0.00,meteohub,2013-05-31 00:22:00,
2013-05-30 20:27:00,71.4,64.6,28.43,SE,135,1.0,2.0,79,0.00,,,0.00,meteohub,2013-05-31 00:27:00,
2013-05-30 20:32:00,70.9,64.4,28.43,SE,135,0.0,2.0,80,0.00,,,0.00,meteohub,2013-05-31 00:32:00,
2013-05-30 20:37:00,70.5,64.4,28.43,SE,135,0.0,2.0,81,0.00,,,0.00,meteohub,2013-05-31 00:37:00,
2013-05-30 20:42:00,70.2,64.0,28.43,SE,135,0.0,1.0,81,0.00,,,0.00,meteohub,2013-05-31 00:42:00,
2013-05-30 20:47:00,69.8,63.7,28.43,SE,135,0.0,1.0,81,0.00,,,0.00,meteohub,2013-05-31 00:47:00,
2013-05-30 20:52:00,69.3,63.9,28.43,East,90,1.0,2.0,83,0.00,,,0.00,meteohub,2013-05-31 00:52:00,
2013-05-30 20:57:00,68.5,63.5,28.44,SE,135,0.0,2.0,84,0.00,,,0.00,meteohub,2013-05-31 00:57:00,
2013-05-30 21:02:00,68.4,63.3,28.44,ESE,113,0.0,2.0,84,0.00,,,0.00,meteohub,2013-05-31 01:02:00,
2013-05-30 21:07:00,68.0,63.3,28.43,SE,135,0.0,2.0,85,0.00,,,0.00,meteohub,2013-05-31 01:07:00,
2013-05-30 21:12:00,67.8,63.5,28.43,South,180,1.0,1.0,86,0.00,,,0.00,meteohub,2013-05-31 01:12:00,
2013-05-30 21:17:00,67.5,63.5,28.44,SW,225,0.0,2.0,87,0.00,,,0.00,meteohub,2013-05-31 01:17:00,
2013-05-30 21:22:00,67.1,63.5,28.44,SE,135,2.0,2.0,88,0.00,,,0.00,meteohub,2013-05-31 01:22:00,
2013-05-30 21:27:00,66.9,63.9,28.44,SE,135,2.0,3.0,90,0.00,,,0.00,meteohub,2013-05-31 01:27:00,
2013-05-30 21:32:00,66.6,63.9,28.43,SE,135,3.0,3.0,91,0.00,,,0.00,meteohub,2013-05-31 01:32:00,
2013-05-30 21:37:00,66.4,64.0,28.44,SE,135,2.0,3.0,92,0.00,,,0.00,meteohub,2013-05-31 01:37:00,
2013-05-30 21:42:00,66.4,64.0,28.44,SE,135,2.0,3.0,92,0.00,,,0.00,meteohub,2013-05-31 01:42:00,
2013-05-30 21:47:00,66.2,63.9,28.45,SE,135,2.0,3.0,92,0.00,,,0.00,meteohub,2013-05-31 01:47:00,
2013-05-30 21:52:00,66.0,63.9,28.45,SE,135,2.0,3.0,93,0.00,,,0.00,meteohub,2013-05-31 01:52:00,
2013-05-30 21:57:00,65.8,63.7,28.45,SE,135,2.0,4.0,93,0.00,,,0.00,meteohub,2013-05-31 01:57:00,
2013-05-30 22:02:00,65.7,63.5,28.45,SE,135,2.0,4.0,93,0.00,,,0.00,meteohub,2013-05-31 02:02:00,
2013-05-30 22:07:00,65.5,63.3,28.45,SE,135,2.0,4.0,93,0.00,,,0.00,meteohub,2013-05-31 02:07:00,
2013-05-30 22:12:00,65.3,63.1,28.45,South,180,0.0,2.0,93,0.00,,,0.00,meteohub,2013-05-31 02:12:00,
2013-05-30 22:17:00,65.1,63.0,28.45,SW,225,1.0,2.0,93,0.00,,,0.00,meteohub,2013-05-31 02:17:00,
2013-05-30 22:22:00,64.8,62.6,28.45,South,180,0.0,2.0,93,0.00,,,0.00,meteohub,2013-05-31 02:22:00,
2013-05-30 22:27:00,64.6,62.4,28.45,SE,135,0.0,2.0,93,0.00,,,0.00,meteohub,2013-05-31 02:27:00,
2013-05-30 22:32:00,64.6,62.8,28.45,East,90,2.0,2.0,94,0.00,,,0.00,meteohub,2013-05-31 02:32:00,
2013-05-30 22:37:00,64.2,62.2,28.45,East,90,2.0,2.0,93,0.00,,,0.00,meteohub,2013-05-31 02:37:00,
2013-05-30 22:42:00,63.9,61.9,28.45,North,0,1.0,2.0,93,0.00,,,0.00,meteohub,2013-05-31 02:42:00,
2013-05-30 22:47:00,63.7,61.7,28.45,East,90,1.0,2.0,93,0.00,,,0.00,meteohub,2013-05-31 02:47:00,
2013-05-30 22:52:00,63.5,61.7,28.45,East,90,1.0,2.0,94,0.00,,,0.00,meteohub,2013-05-31 02:52:00,
2013-05-30 22:57:00,63.1,61.3,28.45,East,90,2.0,2.0,94,0.00,,,0.00,meteohub,2013-05-31 02:57:00,
2013-05-30 23:02:00,63.1,61.3,28.45,East,90,1.0,2.0,94,0.00,,,0.00,meteohub,2013-05-31 03:02:00,
2013-05-30 23:07:00,63.0,61.2,28.46,East,90,1.0,2.0,94,0.00,,,0.00,meteohub,2013-05-31 03:07:00,
2013-05-30 23:12:00,62.8,61.0,28.45,SE,135,1.0,2.0,94,0.00,,,0.00,meteohub,2013-05-31 03:12:00,
2013-05-30 23:17:00,62.6,61.2,28.45,SE,135,2.0,2.0,95,0.00,,,0.00,meteohub,2013-05-31 03:17:00,
2013-05-30 23:22:00,62.6,61.2,28.45,SE,135,0.0,2.0,95,0.00,,,0.00,meteohub,2013-05-31 03:22:00,
2013-05-30 23:27:00,62.4,61.3,28.45,SE,135,2.0,2.0,96,0.00,,,0.00,meteohub,2013-05-31 03:27:00,
2013-05-30 23:32:00,62.2,61.2,28.45,SE,135,0.0,2.0,96,0.00,,,0.00,meteohub,2013-05-31 03:32:00,
2013-05-30 23:37:00,62.1,61.0,28.45,SE,135,0.0,2.0,96,0.00,,,0.00,meteohub,2013-05-31 03:37:00,
2013-05-30 23:42:00,61.9,60.8,28.45,SE,135,0.0,2.0,96,0.00,,,0.00,meteohub,2013-05-31 03:42:00,
2013-05-30 23:47:00,61.7,60.6,28.45,SE,135,0.0,0.0,96,0.00,,,0.00,meteohub,2013-05-31 03:47:00,
2013-05-30 23:52:00,61.7,60.6,28.45,East,90,0.0,1.0,96,0.00,,,0.00,meteohub,2013-05-31 03:52:00,
2013-05-30 23:57:00,61.5,60.4,28.45,East,90,2.0,2.0,96,0.00,,,0.00,meteohub,2013-05-31 03:57:00,